Paradise — 3FOB5 — position and weather

sailwx.info

Track history (hours):
 
Tides and Currents Weather Stations Pressure Air Temp Water Temp Dewpoint Dewpoint Depression Visibility Wind Speed Wind Dir Waves Ship Positions

Paradise

Operator: Carnival Cruise Lines

Last reported at 2019-Mar-22 11:00 UTC. Time now 2019-Mar-22 12:10 UTC.
Position N 24°54' W 084°24'.

Type: Passenger vessel. MMSI: 355833000.

Wind from 350 at 16 knots

Barometer 1019.0 mb
Air temperature 15.0 ° C
Dewpoint 7.6 ° C
Water temperature 27.0 ° C

Date/timePositionNaut miles runAvg speedWind from/ knotsBaromVisibWave heightAir tempDewpointWater temp
2019-Mar-22 11:00N 24°54' W 084°24'4013.2 350 / 161019.0 15.0 7.627.0
2019-Mar-22 08:00N 25°30' W 084°06'2613.2 340 / 171018.210.8 15.0 9.730.0
2019-Mar-22 06:00N 25°54' W 083°54'11915.7 330 / 301014.710.8 16.010.815.0
2019-Mar-21 22:24N 27°37' W 082°46'715.9
2019-Mar-21 21:59N 27°37' W 082°39'715.4
2019-Mar-21 21:30N 27°42' W 082°33'713.4
2019-Mar-21 21:00N 27°48' W 082°29'612.8
2019-Mar-21 20:30N 27°54' W 082°26'3 2.9
2019-Mar-21 19:37N 27°57' W 082°27'0 0.0
2019-Mar-21 19:25N 27°57' W 082°27'0 0.0
2019-Mar-21 18:58N 27°57' W 082°27'0 0.0
2019-Mar-21 18:25N 27°57' W 082°27'0 0.0
2019-Mar-21 17:58N 27°57' W 082°27'0 0.0
2019-Mar-21 17:28N 27°57' W 082°27'0 0.0
2019-Mar-21 16:58N 27°57' W 082°27'0 0.0
2019-Mar-21 16:22N 27°57' W 082°27'0 0.0
2019-Mar-21 15:58N 27°57' W 082°27'0 0.0
2019-Mar-21 15:28N 27°57' W 082°27'0 0.0
2019-Mar-21 14:52N 27°57' W 082°27'0 0.0
2019-Mar-21 14:28N 27°57' W 082°27'0 0.0
2019-Mar-21 13:49N 27°57' W 082°27'0 0.0
2019-Mar-21 13:22N 27°57' W 082°27'0 0.0
2019-Mar-21 12:58N 27°57' W 082°27'0 0.0
2019-Mar-21 12:28N 27°57' W 082°27'0 0.0
2019-Mar-21 11:55N 27°57' W 082°27'0 0.0
2019-Mar-21 11:28N 27°57' W 082°27'0 0.0
2019-Mar-21 10:58N 27°57' W 082°27'0 0.4
2019-Mar-21 10:30N 27°56' W 082°27'2 3.8
2019-Mar-21 10:00N 27°55' W 082°26'5 9.2
2019-Mar-21 09:30N 27°50' W 082°27'1013.0
2019-Mar-21 08:45N 27°42' W 082°33'48316.1
2019-Mar-20 02:42N 20°41' W 086°52'419.4
2019-Mar-20 02:30N 20°38' W 086°54'917.8
2019-Mar-20 02:00N 20°30' W 086°59'1 2.5
2019-Mar-20 01:30N 20°29' W 086°59'0 0.0
2019-Mar-20 01:00N 20°29' W 086°59'0 0.0
2019-Mar-20 00:30N 20°29' W 086°59'0 0.0
2019-Mar-20 00:00N 20°29' W 086°59'0 0.0
2019-Mar-19 23:30N 20°29' W 086°59'0 0.0
2019-Mar-19 23:00N 20°29' W 086°59'0 0.0
2019-Mar-19 22:30N 20°29' W 086°59'0 0.0
2019-Mar-19 22:00N 20°29' W 086°59'0 0.0
2019-Mar-19 21:30N 20°29' W 086°59'0 0.0
2019-Mar-19 21:00N 20°29' W 086°59'0 0.0
2019-Mar-19 20:27N 20°29' W 086°59'0 0.0
2019-Mar-19 20:00N 20°29' W 086°59'0 0.0
2019-Mar-19 19:27N 20°29' W 086°59'0 0.0
2019-Mar-19 19:00N 20°29' W 086°59'0 0.0
2019-Mar-19 18:30N 20°29' W 086°59'0 0.0
2019-Mar-19 18:00N 20°29' W 086°59'0 0.0
2019-Mar-19 17:30N 20°29' W 086°59'0 0.0
2019-Mar-19 17:00N 20°29' W 086°59'0 0.0
2019-Mar-19 16:30N 20°29' W 086°59'0 0.1
2019-Mar-19 16:00N 20°29' W 086°59'3 6.8
2019-Mar-19 15:30N 20°32' W 086°58'816.0
2019-Mar-19 15:00N 20°39' W 086°53'8015.9
2019-Mar-19 10:00N 21°30' W 085°48'252 5.4 220 / 211013.5 5.4 24.024.029.0
2019-Mar-17 11:00N 25°24' W 084°06'3417.1 040 / 161018.2 22.020.627.0
2019-Mar-17 09:00N 25°54' W 083°48'13111.3 020 / 141017.710.8 21.021.030.0
2019-Mar-16 21:23N 27°46' W 082°31'512.8
2019-Mar-16 21:00N 27°49' W 082°27'611.8
2019-Mar-16 20:30N 27°54' W 082°26'2 3.9
2019-Mar-16 19:59N 27°57' W 082°27'0 0.5
2019-Mar-16 19:29N 27°57' W 082°27'0 0.0
2019-Mar-16 18:59N 27°57' W 082°27'0 0.0
2019-Mar-16 18:29N 27°57' W 082°27'0 0.0
2019-Mar-16 17:56N 27°57' W 082°27'0 0.0
2019-Mar-16 17:29N 27°57' W 082°27'0 0.0
2019-Mar-16 16:59N 27°57' W 082°27'0 0.0
2019-Mar-16 16:26N 27°57' W 082°27'0 0.0
2019-Mar-16 15:59N 27°57' W 082°27'0 0.0
2019-Mar-16 15:29N 27°57' W 082°27'0 0.0
2019-Mar-16 14:59N 27°57' W 082°27'0 0.0
2019-Mar-16 14:29N 27°57' W 082°27'0 0.0
2019-Mar-16 13:59N 27°57' W 082°27'0 0.0
2019-Mar-16 13:29N 27°57' W 082°27'0 0.0
2019-Mar-16 12:59N 27°57' W 082°27'0 0.0
2019-Mar-16 12:29N 27°57' W 082°27'0 0.0
2019-Mar-16 11:56N 27°57' W 082°27'0 0.0
2019-Mar-16 11:29N 27°57' W 082°27'0 0.0
2019-Mar-16 11:00N 27°57' W 082°27'1 2.0
2019-Mar-16 10:30N 27°56' W 082°27'2 4.3
2019-Mar-16 10:00N 27°54' W 082°26'611.1
2019-Mar-16 09:30N 27°48' W 082°28'28513.2
2019-Mar-15 12:00N 23°42' W 085°06'20218.1 120 / 171016.710.8 25.023.629.0
2019-Mar-15 00:50N 20°44' W 086°49'720.9
2019-Mar-15 00:30N 20°38' W 086°53'918.6
2019-Mar-15 00:00N 20°30' W 086°59'2 3.1
2019-Mar-14 23:25N 20°29' W 086°59'0 0.0
2019-Mar-14 22:58N 20°29' W 086°59'0 0.0
2019-Mar-14 22:25N 20°29' W 086°59'0 0.0
2019-Mar-14 21:58N 20°29' W 086°59'0 0.0
2019-Mar-14 21:28N 20°29' W 086°59'0 0.0
2019-Mar-14 20:58N 20°29' W 086°59'0 0.0
2019-Mar-14 20:28N 20°29' W 086°59'0 0.0
2019-Mar-14 19:58N 20°29' W 086°59'0 0.0
2019-Mar-14 19:28N 20°29' W 086°59'0 0.0
2019-Mar-14 18:58N 20°29' W 086°59'0 0.0
2019-Mar-14 18:28N 20°29' W 086°59'0 0.0
2019-Mar-14 17:58N 20°29' W 086°59'0 0.0
2019-Mar-14 17:28N 20°29' W 086°59'0 0.0
2019-Mar-14 16:58N 20°29' W 086°59'0 0.0
2019-Mar-14 16:25N 20°29' W 086°59'0 0.0
2019-Mar-14 15:55N 20°29' W 086°59'0 0.0
2019-Mar-14 15:28N 20°29' W 086°59'0 0.0
2019-Mar-14 14:58N 20°29' W 086°59'0 0.0
2019-Mar-14 14:22N 20°29' W 086°59'0 0.0
2019-Mar-14 13:58N 20°29' W 086°59'0 0.0
2019-Mar-14 13:30N 20°29' W 086°59'2 4.1
2019-Mar-14 13:00N 20°31' W 086°59'713.1
2019-Mar-14 12:30N 20°36' W 086°55'  
Track history (hours):
 
Tides and Currents Weather Stations Pressure Air Temp Water Temp Dewpoint Dewpoint Depression Visibility Wind Speed Wind Dir Waves Ship Positions

Paradise

Operator: Carnival Cruise Lines

Last reported at 2019-Mar-22 11:00 UTC. Time now 2019-Mar-22 12:10 UTC.
Position N 24°54' W 084°24'.

Type: Passenger vessel. MMSI: 355833000.

Wind from 350 at 16 knots

Barometer 1019.0 mb
Air temperature 15.0 ° C
Dewpoint 7.6 ° C
Water temperature 27.0 ° C

Date/timePositionNaut miles runAvg speedWind from/ knotsBaromVisibWave heightAir tempDewpointWater temp
2019-Mar-22 11:00N 24°54' W 084°24'4013.2 350 / 161019.0 15.0 7.627.0
2019-Mar-22 08:00N 25°30' W 084°06'2613.2 340 / 171018.210.8 15.0 9.730.0
2019-Mar-22 06:00N 25°54' W 083°54'11915.7 330 / 301014.710.8 16.010.815.0
2019-Mar-21 22:24N 27°37' W 082°46'715.9
2019-Mar-21 21:59N 27°37' W 082°39'715.4
2019-Mar-21 21:30N 27°42' W 082°33'713.4
2019-Mar-21 21:00N 27°48' W 082°29'612.8
2019-Mar-21 20:30N 27°54' W 082°26'3 2.9
2019-Mar-21 19:37N 27°57' W 082°27'0 0.0
2019-Mar-21 19:25N 27°57' W 082°27'0 0.0
2019-Mar-21 18:58N 27°57' W 082°27'0 0.0
2019-Mar-21 18:25N 27°57' W 082°27'0 0.0
2019-Mar-21 17:58N 27°57' W 082°27'0 0.0
2019-Mar-21 17:28N 27°57' W 082°27'0 0.0
2019-Mar-21 16:58N 27°57' W 082°27'0 0.0
2019-Mar-21 16:22N 27°57' W 082°27'0 0.0
2019-Mar-21 15:58N 27°57' W 082°27'0 0.0
2019-Mar-21 15:28N 27°57' W 082°27'0 0.0
2019-Mar-21 14:52N 27°57' W 082°27'0 0.0
2019-Mar-21 14:28N 27°57' W 082°27'0 0.0
2019-Mar-21 13:49N 27°57' W 082°27'0 0.0
2019-Mar-21 13:22N 27°57' W 082°27'0 0.0
2019-Mar-21 12:58N 27°57' W 082°27'0 0.0
2019-Mar-21 12:28N 27°57' W 082°27'0 0.0
2019-Mar-21 11:55N 27°57' W 082°27'0 0.0
2019-Mar-21 11:28N 27°57' W 082°27'0 0.0
2019-Mar-21 10:58N 27°57' W 082°27'0 0.4
2019-Mar-21 10:30N 27°56' W 082°27'2 3.8
2019-Mar-21 10:00N 27°55' W 082°26'5 9.2
2019-Mar-21 09:30N 27°50' W 082°27'1013.0
2019-Mar-21 08:45N 27°42' W 082°33'48316.1
2019-Mar-20 02:42N 20°41' W 086°52'419.4
2019-Mar-20 02:30N 20°38' W 086°54'917.8
2019-Mar-20 02:00N 20°30' W 086°59'1 2.5
2019-Mar-20 01:30N 20°29' W 086°59'0 0.0
2019-Mar-20 01:00N 20°29' W 086°59'0 0.0
2019-Mar-20 00:30N 20°29' W 086°59'0 0.0
2019-Mar-20 00:00N 20°29' W 086°59'0 0.0
2019-Mar-19 23:30N 20°29' W 086°59'0 0.0
2019-Mar-19 23:00N 20°29' W 086°59'0 0.0
2019-Mar-19 22:30N 20°29' W 086°59'0 0.0
2019-Mar-19 22:00N 20°29' W 086°59'0 0.0
2019-Mar-19 21:30N 20°29' W 086°59'0 0.0
2019-Mar-19 21:00N 20°29' W 086°59'0 0.0
2019-Mar-19 20:27N 20°29' W 086°59'0 0.0
2019-Mar-19 20:00N 20°29' W 086°59'0 0.0
2019-Mar-19 19:27N 20°29' W 086°59'0 0.0
2019-Mar-19 19:00N 20°29' W 086°59'0 0.0
2019-Mar-19 18:30N 20°29' W 086°59'0 0.0
2019-Mar-19 18:00N 20°29' W 086°59'0 0.0
2019-Mar-19 17:30N 20°29' W 086°59'0 0.0
2019-Mar-19 17:00N 20°29' W 086°59'0 0.0
2019-Mar-19 16:30N 20°29' W 086°59'0 0.1
2019-Mar-19 16:00N 20°29' W 086°59'3 6.8
2019-Mar-19 15:30N 20°32' W 086°58'816.0
2019-Mar-19 15:00N 20°39' W 086°53'8015.9
2019-Mar-19 10:00N 21°30' W 085°48'252 5.4 220 / 211013.5 5.4 24.024.029.0
2019-Mar-17 11:00N 25°24' W 084°06'3417.1 040 / 161018.2 22.020.627.0
2019-Mar-17 09:00N 25°54' W 083°48'13111.3 020 / 141017.710.8 21.021.030.0
2019-Mar-16 21:23N 27°46' W 082°31'512.8
2019-Mar-16 21:00N 27°49' W 082°27'611.8
2019-Mar-16 20:30N 27°54' W 082°26'2 3.9
2019-Mar-16 19:59N 27°57' W 082°27'0 0.5
2019-Mar-16 19:29N 27°57' W 082°27'0 0.0
2019-Mar-16 18:59N 27°57' W 082°27'0 0.0
2019-Mar-16 18:29N 27°57' W 082°27'0 0.0
2019-Mar-16 17:56N 27°57' W 082°27'0 0.0
2019-Mar-16 17:29N 27°57' W 082°27'0 0.0
2019-Mar-16 16:59N 27°57' W 082°27'0 0.0
2019-Mar-16 16:26N 27°57' W 082°27'0 0.0
2019-Mar-16 15:59N 27°57' W 082°27'0 0.0
2019-Mar-16 15:29N 27°57' W 082°27'0 0.0
2019-Mar-16 14:59N 27°57' W 082°27'0 0.0
2019-Mar-16 14:29N 27°57' W 082°27'0 0.0
2019-Mar-16 13:59N 27°57' W 082°27'0 0.0
2019-Mar-16 13:29N 27°57' W 082°27'0 0.0
2019-Mar-16 12:59N 27°57' W 082°27'0 0.0
2019-Mar-16 12:29N 27°57' W 082°27'0 0.0
2019-Mar-16 11:56N 27°57' W 082°27'0 0.0
2019-Mar-16 11:29N 27°57' W 082°27'0 0.0
2019-Mar-16 11:00N 27°57' W 082°27'1 2.0
2019-Mar-16 10:30N 27°56' W 082°27'2 4.3
2019-Mar-16 10:00N 27°54' W 082°26'611.1
2019-Mar-16 09:30N 27°48' W 082°28'28513.2
2019-Mar-15 12:00N 23°42' W 085°06'20218.1 120 / 171016.710.8 25.023.629.0
2019-Mar-15 00:50N 20°44' W 086°49'720.9
2019-Mar-15 00:30N 20°38' W 086°53'918.6
2019-Mar-15 00:00N 20°30' W 086°59'2 3.1
2019-Mar-14 23:25N 20°29' W 086°59'0 0.0
2019-Mar-14 22:58N 20°29' W 086°59'0 0.0
2019-Mar-14 22:25N 20°29' W 086°59'0 0.0
2019-Mar-14 21:58N 20°29' W 086°59'0 0.0
2019-Mar-14 21:28N 20°29' W 086°59'0 0.0
2019-Mar-14 20:58N 20°29' W 086°59'0 0.0
2019-Mar-14 20:28N 20°29' W 086°59'0 0.0
2019-Mar-14 19:58N 20°29' W 086°59'0 0.0
2019-Mar-14 19:28N 20°29' W 086°59'0 0.0
2019-Mar-14 18:58N 20°29' W 086°59'0 0.0
2019-Mar-14 18:28N 20°29' W 086°59'0 0.0
2019-Mar-14 17:58N 20°29' W 086°59'0 0.0
2019-Mar-14 17:28N 20°29' W 086°59'0 0.0
2019-Mar-14 16:58N 20°29' W 086°59'0 0.0
2019-Mar-14 16:25N 20°29' W 086°59'0 0.0
2019-Mar-14 15:55N 20°29' W 086°59'0 0.0
2019-Mar-14 15:28N 20°29' W 086°59'0 0.0
2019-Mar-14 14:58N 20°29' W 086°59'0 0.0
2019-Mar-14 14:22N 20°29' W 086°59'0 0.0
2019-Mar-14 13:58N 20°29' W 086°59'0 0.0
2019-Mar-14 13:30N 20°29' W 086°59'2 4.1
2019-Mar-14 13:00N 20°31' W 086°59'713.1
2019-Mar-14 12:30N 20°36' W 086°55'  

Dump ship's entire track history